Tioga, TX (76271)

12:13 PM CDT on August 30, 2016 (GMT -0500)
D and B Ranch | | Change Station

Elev 667 ft 33.48 °N, 96.93 °W | Updated 55 seconds ago

Scattered Clouds
Scattered Clouds
87.4 °F
Feels Like 95 °F
N
6.0
Wind Variable Wind from NNE
Gusts 13.0 mph

Today
High -- | Low -- °F
--% Chance of Precip.
Yesterday
High -- | Low -- °F
Precip. -- in
Pressure 30.10 in
Visibility 10.0 miles
Clouds Scattered Clouds 2900 ft
Heat Index 95 °F
Dew Point 73 °F
Humidity 63%
Rainfall 0.00 in
Snow Depth Not available.
7:00 AM 7:54 PM
Waning Crescent, 3% visible
METAR KGYI 301650Z AUTO 01006KT 10SM SCT029 31/24 A3010 RMK AO2 T03100237
Pressure 30.10 in
Visibility 10.0 miles
Clouds Scattered Clouds 2900 ft
Heat Index 95 °F
Dew Point 73 °F
Humidity 63%
Rainfall 0.00 in
Snow Depth Not available.
7:00 AM 7:54 PM
Waning Crescent, 3% visible
METAR KGYI 301650Z AUTO 01006KT 10SM SCT029 31/24 A3010 RMK AO2 T03100237

10-Day Weather Forecast

Almanac

Astronomy

Aug. 30, 2016 Rise Set
Actual Time
Civil Twilight
Nautical Twilight
Astronomical Twilight
Moon
Length of Visible Light
Length of Day
Tomorrow will be .
, % of the Moon is Illuminated

Today's Extremes

State Highs State Lows

Community

WunderPhotos

Upload Photos

1,935,848 photos uploaded!

WunderBlog® & News

Nearby

Air Quality

  Air Quality AQ Index Pollutant
Not available.

Snow Depth

Station Depth Elevation

Earthquake Activity

City Distance Mag. Time & Date
Minimum magnitude displayed is 2.5.

Coastal Water Temperatures

Place Temperature

Stations

Nearby Weather Stations

Station Location Temp. Windchill Dew Point Humidity Wind Precip. Elev Updated Type
                   

Watches & Warnings

There are currently no watches in effect.